This is the latest recevied weather packets stored in our database for station/object KY0TEQ-13. If no packets are shown the sender has not sent any weather packets the latest 1 day(s).
| Time | Temp. | Humidity | Pressure | Rain* | Wind** | Luminosity | Snow |
|---|---|---|---|---|---|---|---|
| 1778078236 | 6.67° C | 61% | 1299.2 hPa | 0 mm | - | 342 W/m² | - |
| 1778076423 | 5.56° C | 65% | 1299.3 hPa | 0 mm | - | 141 W/m² | - |
| 1778075513 | 5.56° C | 66% | 1299.4 hPa | 0 mm | - | 64 W/m² | - |
| 1778074603 | 5° C | 69% | 1299.3 hPa | 0 mm | - | 114 W/m² | - |
| 1778073997 | 4.44° C | 72% | 1299.2 hPa | 0 mm | - | 111 W/m² | - |
| 1778073391 | 3.89° C | 73% | 1298.9 hPa | 0 mm | - | 73 W/m² | - |
| 1778073087 | 3.89° C | 73% | 1298.8 hPa | 0 mm | - | 76 W/m² | - |
| 1778072482 | 3.89° C | 75% | 1298.8 hPa | 0 mm | - | 44 W/m² | - |
| 1778071575 | 3.33° C | 75% | 1298.7 hPa | 0 mm | - | 27 W/m² | - |
| 1778071273 | 3.33° C | 76% | 1298.8 hPa | 0 mm | - | 24 W/m² | - |
| 1778070970 | 3.33° C | 76% | 1298.8 hPa | 0 mm | - | 23 W/m² | - |
| 1778068549 | 3.33° C | 75% | 1298.5 hPa | 0 mm | - | 0 W/m² | - |
| 1778067643 | 3.33° C | 74% | 1298.1 hPa | 0 mm | - | 0 W/m² | - |
| 1778066734 | 3.33° C | 76% | 1298.2 hPa | 0 mm | - | 0 W/m² | - |
| 1778065826 | 3.33° C | 76% | 1297.9 hPa | 0 mm | - | 0 W/m² | - |
| 1778065524 | 3.33° C | 76% | 1298.1 hPa | 0 mm | - | 0 W/m² | - |
| 1778065221 | 3.33° C | 76% | 1298.1 hPa | 0 mm | - | 0 W/m² | - |
| 1778064917 | 3.33° C | 76% | 1297.9 hPa | 0 mm | - | 0 W/m² | - |
| 1778062799 | 3.89° C | 75% | 1298.1 hPa | 0 mm | - | 0 W/m² | - |
| 1778062495 | 3.89° C | 75% | 1297.8 hPa | 0 mm | - | 0 W/m² | - |
| 1778062192 | 4.44° C | 75% | 1297.7 hPa | 0 mm | - | 0 W/m² | - |
| 1778061891 | 4.44° C | 73% | 1297.9 hPa | 0 mm | - | 0 W/m² | - |
| 1778061287 | 4.44° C | 72% | 1297.8 hPa | 0 mm | - | 0 W/m² | - |
| 1778060378 | 4.44° C | 71% | 1298.1 hPa | 0 mm | - | 0 W/m² | - |
| 1778060077 | 4.44° C | 72% | 1297.8 hPa | 0 mm | - | 0 W/m² | - |
* Rain latest hour (hover to see other rain measurements)
** Current wind speed in m/s (hover to see current wind gust speed)